Time;durP1;ratioP1;P1;durP2;ratioP2;P2;SDS_P1;SDS_P2;PMS_P1;PMS_P2;Temp;Humidity;BMP_temperature;BMP_pressure;BME280_temperature;BME280_humidity;BME280_pressure;Samples;Min_cycle;Max_cycle;Signal;HPM_P1;HPM_P2
2022/05/06 00:02:11;;;;;;;;;;;;;;;15.61;60.06;100135.66;4412503;32;19996;-93
2022/05/06 00:04:37;;;;;;;;;;;;;;;15.64;60.06;100138.16;4412238;32;20628;-93
2022/05/06 00:07:04;;;;;;;;;;;;;;;15.64;60.06;100139.91;4412397;32;20224;-93
2022/05/06 00:09:30;;;;;;;;;;;;;;;15.60;60.05;100139.19;4412459;32;20716;-93
2022/05/06 00:11:55;;;;;;;;;;;;;;;15.48;60.05;100125.75;4412350;32;19986;-93
2022/05/06 00:14:23;;;;;;;;;;;;;;;15.49;60.04;100124.84;4412267;32;20043;-94
2022/05/06 00:16:48;;;;;;;;;;;;;;;15.49;60.04;100125.69;4413085;32;20631;-93
2022/05/06 00:19:16;;;;;;;;;;;;;;;15.43;60.04;100123.34;4412532;32;19989;-93
2022/05/06 00:21:41;;;;;;;;;;;;;;;15.42;60.04;100119.03;4412790;32;20556;-94
2022/05/06 00:24:06;;;;;;;;;;;;;;;15.39;60.03;100124.44;4411396;32;20055;-91
2022/05/06 00:26:31;;;;;;;;;;;;;;;15.37;60.04;100139.34;4410932;32;20008;-93
2022/05/06 00:28:57;;;;;;;;;;;;;;;15.38;60.04;100129.72;4410588;32;19974;-91
2022/05/06 00:31:22;;;;;;;;;;;;;;;15.38;60.04;100132.34;4411220;32;19984;-92
2022/05/06 00:33:48;;;;;;;;;;;;;;;15.40;60.04;100130.53;4411227;32;20031;-91
2022/05/06 00:36:14;;;;;;;;;;;;;;;15.62;60.04;100131.28;4411327;32;20004;-91
2022/05/06 00:38:39;;;;;;;;;;;;;;;15.41;60.04;100127.81;4417560;32;19973;-92
2022/05/06 00:41:05;;;;;;;;;;;;;;;15.53;60.04;100123.78;4426060;32;20003;-92
2022/05/06 00:43:30;;;;;;;;;;;;;;;15.67;60.05;100128.44;4426300;32;20031;-92
2022/05/06 00:45:55;;;;;;;;;;;;;;;15.68;60.05;100130.97;4426261;32;19997;-92
2022/05/06 00:48:28;;;;;;;;;;;;;;;15.65;60.05;100124.09;4426294;32;20023;-92
2022/05/06 00:51:02;;;;;;;;;;;;;;;15.78;60.06;100126.97;4426268;32;19986;-92
2022/05/06 00:53:27;;;;;;;;;;;;;;;15.79;60.06;100123.44;4426525;32;20000;-92
2022/05/06 00:55:52;;;;;;;;;;;;;;;15.76;60.05;100130.59;4426117;32;20001;-92
2022/05/06 00:58:18;;;;;;;;;;;;;;;16.02;60.07;100132.84;4426420;32;20072;-92
2022/05/06 01:00:44;;;;;;;;;;;;;;;16.16;60.08;100130.41;4426093;32;20301;-92
2022/05/06 01:03:09;;;;;;;;;;;;;;;16.21;60.08;100130.16;4426228;32;19981;-91
2022/05/06 01:05:35;;;;;;;;;;;;;;;16.22;60.07;100131.87;4426044;32;19989;-92
2022/05/06 01:08:00;;;;;;;;;;;;;;;16.11;60.07;100140.28;4413626;32;20011;-91
2022/05/06 01:10:25;;;;;;;;;;;;;;;16.31;60.08;100143.69;4426013;32;20011;-91
2022/05/06 01:12:51;;;;;;;;;;;;;;;16.34;60.09;100139.16;4426133;32;19981;-92
2022/05/06 01:15:20;;;;;;;;;;;;;;;16.27;60.09;100137.75;4426007;32;20004;-92
2022/05/06 01:17:46;;;;;;;;;;;;;;;16.11;60.07;100153.41;4426316;32;20008;-91
2022/05/06 01:20:15;;;;;;;;;;;;;;;16.15;60.07;100140.97;4425959;32;20333;-92
2022/05/06 01:22:40;;;;;;;;;;;;;;;16.08;60.08;100132.53;4425995;32;20011;-92
2022/05/06 01:25:05;;;;;;;;;;;;;;;16.08;60.08;100134.31;4425866;32;20001;-91
2022/05/06 01:27:33;;;;;;;;;;;;;;;16.09;60.07;100134.25;4425643;32;19996;-91
2022/05/06 01:29:58;;;;;;;;;;;;;;;16.02;60.07;100140.72;4425694;32;20009;-90
2022/05/06 01:32:23;;;;;;;;;;;;;;;16.21;60.08;100138.91;4425202;32;19993;-90
2022/05/06 01:34:48;;;;;;;;;;;;;;;16.11;60.07;100136.81;4425360;32;19993;-91
2022/05/06 01:37:14;;;;;;;;;;;;;;;16.03;60.07;100142.41;4425273;32;20036;-91
2022/05/06 01:39:39;;;;;;;;;;;;;;;16.16;60.08;100137.44;4412377;32;19986;-90
2022/05/06 01:42:07;;;;;;;;;;;;;;;16.19;60.08;100143.38;4425245;32;20739;-90
2022/05/06 01:44:37;;;;;;;;;;;;;;;16.07;60.07;100137.84;4425562;32;20001;-91
2022/05/06 01:47:02;;;;;;;;;;;;;;;16.02;60.08;100130.22;4425054;32;19981;-91
2022/05/06 01:49:28;;;;;;;;;;;;;;;16.33;60.09;100126.09;4412367;32;20025;-90
2022/05/06 01:51:53;;;;;;;;;;;;;;;16.18;60.08;100127.69;4425055;32;20376;-90
2022/05/06 01:54:18;;;;;;;;;;;;;;;16.25;60.08;100129.94;4425225;32;20025;-90
2022/05/06 01:56:45;;;;;;;;;;;;;;;16.03;60.07;100126.66;4425103;32;20061;-90
2022/05/06 01:59:11;;;;;;;;;;;;;;;16.20;60.08;100126.69;4424960;32;20000;-90
2022/05/06 02:01:37;;;;;;;;;;;;;;;16.14;60.07;100129.63;4425273;32;20000;-91
2022/05/06 02:06:46;;;;;;;;;;;;;;;16.28;60.09;100118.44;4426714;32;19984;-91
2022/05/06 02:09:11;;;;;;;;;;;;;;;16.22;60.08;100116.09;4424867;32;19994;-91
2022/05/06 02:11:37;;;;;;;;;;;;;;;16.25;60.08;100116.81;4411850;32;19989;-90
2022/05/06 02:14:03;;;;;;;;;;;;;;;16.33;60.09;100120.84;4425905;32;19975;-91
2022/05/06 02:16:29;;;;;;;;;;;;;;;16.36;60.09;100121.53;4425609;32;20017;-91
2022/05/06 02:18:54;;;;;;;;;;;;;;;16.43;60.09;100127.34;4425449;32;19981;-90
2022/05/06 02:21:19;;;;;;;;;;;;;;;16.38;60.08;100124.94;4427260;32;20021;-91
2022/05/06 02:23:45;;;;;;;;;;;;;;;16.34;60.09;100122.56;4428028;32;20029;-91
2022/05/06 02:26:13;;;;;;;;;;;;;;;16.32;60.09;100125.22;4429608;32;19981;-89
2022/05/06 02:28:38;;;;;;;;;;;;;;;16.31;60.09;100123.53;4426949;32;19996;-91
2022/05/06 02:33:47;;;;;;;;;;;;;;;16.30;60.08;100115.72;4427657;32;20018;-91
2022/05/06 02:36:13;;;;;;;;;;;;;;;16.40;60.09;100115.19;4425220;32;20250;-91
2022/05/06 02:38:38;;;;;;;;;;;;;;;16.32;60.09;100117.34;4424619;32;20017;-90
2022/05/06 02:41:04;;;;;;;;;;;;;;;16.25;60.08;100127.31;4424650;32;19994;-89
2022/05/06 02:43:29;;;;;;;;;;;;;;;16.37;60.09;100120.62;4424603;32;19985;-89
2022/05/06 02:45:54;;;;;;;;;;;;;;;16.42;60.09;100123.00;4424516;32;20012;-89
2022/05/06 02:48:20;;;;;;;;;;;;;;;16.40;60.09;100132.75;4424390;32;20023;-88
2022/05/06 02:50:47;;;;;;;;;;;;;;;16.52;60.09;100125.06;4424397;32;20052;-90
2022/05/06 02:53:12;;;;;;;;;;;;;;;16.52;60.09;100118.97;4424809;32;20415;-88
2022/05/06 02:55:38;;;;;;;;;;;;;;;16.42;60.09;100120.38;4423714;32;30431;-89
2022/05/06 02:58:03;;;;;;;;;;;;;;;16.27;60.08;100120.19;4424890;32;20626;-89
2022/05/06 03:00:29;;;;;;;;;;;;;;;16.31;60.09;100123.53;4411638;32;19986;-89
2022/05/06 03:02:55;;;;;;;;;;;;;;;16.55;60.09;100121.44;4426898;32;20059;-88
2022/05/06 03:05:20;;;;;;;;;;;;;;;16.56;60.10;100112.63;4411741;32;20307;-89
2022/05/06 03:07:46;;;;;;;;;;;;;;;16.55;60.10;100109.16;4410868;32;27454;-90
2022/05/06 03:10:11;;;;;;;;;;;;;;;16.55;60.10;100100.41;4424347;32;20030;-89
2022/05/06 03:12:37;;;;;;;;;;;;;;;16.55;60.10;100105.69;4424365;32;20274;-89
2022/05/06 03:15:05;;;;;;;;;;;;;;;16.61;60.09;100113.28;4424384;32;19978;-90
2022/05/06 03:17:33;;;;;;;;;;;;;;;16.58;60.10;100116.06;4423867;32;20039;-89
2022/05/06 03:19:59;;;;;;;;;;;;;;;16.63;60.10;100116.66;4411218;32;20754;-90
2022/05/06 03:22:24;;;;;;;;;;;;;;;16.69;60.10;100120.78;4425519;32;19997;-89
2022/05/06 03:24:49;;;;;;;;;;;;;;;16.65;60.10;100120.06;4424752;32;20003;-89
2022/05/06 03:29:59;;;;;;;;;;;;;;;16.66;60.10;100121.78;4426906;32;20023;-89
2022/05/06 03:32:24;;;;;;;;;;;;;;;16.69;60.10;100123.41;4412659;32;20005;-89
2022/05/06 03:34:50;;;;;;;;;;;;;;;16.68;60.10;100125.19;4424457;32;20021;-90
2022/05/06 03:37:15;;;;;;;;;;;;;;;16.62;60.10;100119.38;4411651;32;19981;-88
2022/05/06 03:39:40;;;;;;;;;;;;;;;16.60;60.10;100123.88;4423794;32;20251;-89
2022/05/06 03:42:06;;;;;;;;;;;;;;;16.48;60.09;100130.56;4423768;32;20012;-89
2022/05/06 03:44:31;;;;;;;;;;;;;;;16.58;60.10;100113.44;4423798;32;20020;-90
2022/05/06 03:46:56;;;;;;;;;;;;;;;16.59;60.10;100123.00;4410935;32;19985;-88
2022/05/06 03:49:22;;;;;;;;;;;;;;;16.54;60.09;100122.37;4423709;32;20001;-90
2022/05/06 03:51:47;;;;;;;;;;;;;;;16.51;60.09;100123.38;4423489;32;20001;-89
2022/05/06 03:54:12;;;;;;;;;;;;;;;16.50;60.09;100116.44;4423561;32;19990;-90
2022/05/06 03:56:37;;;;;;;;;;;;;;;16.54;60.10;100128.47;4423714;32;19981;-87
2022/05/06 03:59:03;;;;;;;;;;;;;;;16.77;60.11;100124.72;4423538;32;19982;-90
2022/05/06 04:01:28;;;;;;;;;;;;;;;16.68;60.10;100130.44;4423282;32;20053;-91
2022/05/06 04:03:54;;;;;;;;;;;;;;;16.70;60.11;100136.47;4423520;32;19996;-90
2022/05/06 04:06:20;;;;;;;;;;;;;;;16.70;60.11;100133.84;4423708;32;19985;-90
2022/05/06 04:08:45;;;;;;;;;;;;;;;16.90;60.11;100132.84;4423634;32;20000;-92
2022/05/06 04:11:10;;;;;;;;;;;;;;;16.98;60.12;100133.28;4423376;32;20019;-90
2022/05/06 04:13:36;;;;;;;;;;;;;;;17.12;60.12;100128.16;4423549;32;19973;-89
2022/05/06 04:16:04;;;;;;;;;;;;;;;17.11;60.13;100133.50;4423362;32;20407;-87
2022/05/06 04:18:29;;;;;;;;;;;;;;;17.28;60.13;100136.09;4423637;32;19989;-88
2022/05/06 04:23:39;;;;;;;;;;;;;;;17.44;60.14;100151.88;4425542;32;19992;-89
2022/05/06 04:26:06;;;;;;;;;;;;;;;17.58;60.15;100149.37;4423223;32;20009;-89
2022/05/06 04:28:31;;;;;;;;;;;;;;;17.70;60.16;100153.97;4423440;32;20603;-87
2022/05/06 04:30:57;;;;;;;;;;;;;;;17.73;60.16;100150.31;4425541;32;19996;-94
2022/05/06 04:33:24;;;;;;;;;;;;;;;17.85;60.17;100156.72;4428741;32;19981;-95
2022/05/06 04:35:54;;;;;;;;;;;;;;;17.99;60.17;100160.28;4435835;32;19957;-95
2022/05/06 04:38:28;;;;;;;;;;;;;;;18.06;60.17;100151.09;4432989;32;20004;-93
2022/05/06 04:41:17;;;;;;;;;;;;;;;18.15;60.18;100156.78;4433999;32;19998;-96
2022/05/06 04:43:47;;;;;;;;;;;;;;;18.39;60.19;100156.22;4438015;32;19941;-96
2022/05/06 04:46:13;;;;;;;;;;;;;;;18.55;60.20;100164.09;4423603;32;19991;-96
2022/05/06 04:48:38;;;;;;;;;;;;;;;18.70;60.22;100172.94;4420253;32;19962;-96
2022/05/06 04:51:04;;;;;;;;;;;;;;;18.74;60.21;100169.19;4420103;32;20000;-96
2022/05/06 04:53:29;;;;;;;;;;;;;;;18.92;60.22;100172.47;4420647;32;20028;-96
2022/05/06 04:55:55;;;;;;;;;;;;;;;19.04;60.22;100163.84;4420768;32;19977;-96
2022/05/06 04:58:23;;;;;;;;;;;;;;;19.27;60.24;100168.59;4421292;32;19957;-96
2022/05/06 05:00:49;;;;;;;;;;;;;;;19.32;60.24;100170.94;4435174;32;20027;-96
2022/05/06 05:06:18;;;;;;;;;;;;;;;19.37;60.24;100174.12;4572706;26;20011;-96
2022/05/06 05:08:52;;;;;;;;;;;;;;;19.41;60.25;100170.38;4472380;32;19961;-96
2022/05/06 05:16:22;;;;;;;;;;;;;;;19.49;60.25;100168.09;4982860;26;1635600;-95
2022/05/06 05:24:29;;;;;;;;;;;;;;;19.44;60.25;100169.34;4942166;27;19951;-96
2022/05/06 05:27:22;;;;;;;;;;;;;;;19.50;60.25;100167.16;4769068;27;19981;-95
2022/05/06 05:37:39;;;;;;;;;;;;;;;19.79;60.27;100169.78;4537378;27;20024;-96
2022/05/06 05:40:10;;;;;;;;;;;;;;;19.80;60.27;100171.50;4390532;27;19994;-96
2022/05/06 05:48:20;;;;;;;;;;;;;;;19.91;60.27;100177.81;4290926;33;19976;-96
2022/05/06 05:56:02;;;;;;;;;;;;;;;20.13;60.28;100187.84;4376899;32;19962;-96
2022/05/06 05:58:40;;;;;;;;;;;;;;;20.24;60.30;100181.84;4361973;32;19955;-96
2022/05/06 06:01:20;;;;;;;;;;;;;;;20.25;60.29;100188.84;4347908;32;20017;-96
2022/05/06 06:04:02;;;;;;;;;;;;;;;20.27;60.29;100186.94;4360245;32;19995;-96
2022/05/06 06:06:28;;;;;;;;;;;;;;;20.23;60.29;100180.16;4357472;32;19959;-96
2022/05/06 06:08:55;;;;;;;;;;;;;;;20.31;60.31;100188.44;4345287;32;20020;-96
2022/05/06 06:11:21;;;;;;;;;;;;;;;20.25;60.29;100194.13;4355767;32;19999;-96
2022/05/06 06:13:58;;;;;;;;;;;;;;;20.38;60.30;100191.53;4349959;32;19974;-96
2022/05/06 06:16:50;;;;;;;;;;;;;;;20.46;60.31;100190.09;4354307;32;20343;-96
2022/05/06 06:24:56;;;;;;;;;;;;;;;20.39;60.31;100196.72;3686651;27;19987;-88
2022/05/06 06:27:23;;;;;;;;;;;;;;;20.51;60.30;100198.59;4347361;32;20032;-88
2022/05/06 06:29:55;;;;;;;;;;;;;;;20.45;60.30;100198.16;4353087;32;20058;-95
2022/05/06 06:32:20;;;;;;;;;;;;;;;20.40;60.30;100205.50;4349008;32;19999;-90
2022/05/06 06:34:46;;;;;;;;;;;;;;;20.37;60.30;100205.72;4335554;32;20250;-90
2022/05/06 06:37:12;;;;;;;;;;;;;;;20.37;60.30;100198.62;4350411;32;19997;-87
2022/05/06 06:39:37;;;;;;;;;;;;;;;20.51;60.30;100206.50;4363647;32;19986;-89
2022/05/06 06:42:02;;;;;;;;;;;;;;;20.50;60.30;100210.13;4369869;32;20001;-89
2022/05/06 06:44:42;;;;;;;;;;;;;;;20.56;60.32;100194.78;4362709;32;20026;-96
2022/05/06 06:47:08;;;;;;;;;;;;;;;20.74;60.33;100196.22;4340305;32;19994;-95
2022/05/06 06:49:33;;;;;;;;;;;;;;;20.80;60.33;100199.28;4346540;32;20002;-92
2022/05/06 06:54:52;;;;;;;;;;;;;;;20.95;60.34;100197.41;4354163;32;20042;-91
2022/05/06 06:57:18;;;;;;;;;;;;;;;21.06;60.33;100202.00;4349451;32;22023;-95
2022/05/06 06:59:46;;;;;;;;;;;;;;;21.17;60.33;100198.59;4349809;32;20003;-94
2022/05/06 07:02:14;;;;;;;;;;;;;;;21.24;60.34;100189.31;4341841;33;19992;-96
2022/05/06 07:04:40;;;;;;;;;;;;;;;21.21;60.34;100187.69;4337288;33;19995;-89
2022/05/06 07:12:34;;;;;;;;;;;;;;;21.39;60.36;100189.09;4459687;27;20009;-95
2022/05/06 07:17:47;;;;;;;;;;;;;;;;;;;;;
2022/05/06 07:20:22;;;;;;;;;;;;;;;21.88;60.38;100192.72;4365031;32;36574;-95
2022/05/06 07:22:53;;;;;;;;;;;;;;;21.87;60.38;100191.88;4365151;32;20344;-96
2022/05/06 07:25:48;;;;;;;;;;;;;;;;;;;;;
2022/05/06 07:31:14;;;;;;;;;;;;;;;21.96;60.39;100191.19;4333205;33;19994;-94
2022/05/06 07:33:54;;;;;;;;;;;;;;;22.15;60.39;100195.22;4337848;33;20609;-94
2022/05/06 07:42:32;;;;;;;;;;;;;;;22.53;60.41;100195.06;4538282;27;20027;-95
2022/05/06 07:59:07;;;;;;;;;;;;;;;;;;;;;
2022/05/06 08:04:36;;;;;;;;;;;;;;;22.73;60.43;100198.88;4337336;33;19993;-91
2022/05/06 08:07:02;;;;;;;;;;;;;;;22.87;60.42;100202.19;4337733;33;20047;-90
2022/05/06 08:09:28;;;;;;;;;;;;;;;23.00;60.44;100201.28;4335597;33;19991;-91
2022/05/06 08:11:53;;;;;;;;;;;;;;;23.21;60.45;100202.28;4335368;33;20007;-90
2022/05/06 08:14:18;;;;;;;;;;;;;;;23.23;60.45;100201.19;4335199;33;19972;-91
2022/05/06 08:16:44;;;;;;;;;;;;;;;23.52;60.47;100203.37;4323687;33;20054;-92
2022/05/06 08:19:09;;;;;;;;;;;;;;;23.66;60.48;100194.34;4336635;33;20018;-94
2022/05/06 08:21:35;;;;;;;;;;;;;;;23.49;60.46;100201.81;4336907;33;20018;-92
2022/05/06 08:24:00;;;;;;;;;;;;;;;23.40;60.46;100191.88;4336863;33;20022;-94
2022/05/06 08:26:38;;;;;;;;;;;;;;;23.63;60.47;100189.28;4339821;33;20062;-96
2022/05/06 08:29:08;;;;;;;;;;;;;;;23.85;60.48;100192.75;4623350;27;20052;-92
2022/05/06 08:31:39;;;;;;;;;;;;;;;23.79;60.48;100195.06;4365872;32;19993;-94
2022/05/06 08:34:13;;;;;;;;;;;;;;;23.98;60.49;100195.28;4370182;32;19959;-94
2022/05/06 08:36:39;;;;;;;;;;;;;;;23.98;60.49;100189.97;4355873;32;19993;-93
2022/05/06 08:39:07;;;;;;;;;;;;;;;24.11;60.51;100185.31;4370226;32;19994;-96
2022/05/06 08:41:32;;;;;;;;;;;;;;;24.13;60.51;100188.75;4372196;32;19967;-95
2022/05/06 08:43:58;;;;;;;;;;;;;;;24.29;60.51;100192.81;4370511;32;19979;-94
2022/05/06 08:51:53;;;;;;;;;;;;;;;24.44;60.52;100194.22;4369506;32;19962;-95
2022/05/06 08:54:18;;;;;;;;;;;;;;;24.68;60.53;100184.19;4367009;32;20304;-95
2022/05/06 08:56:43;;;;;;;;;;;;;;;24.94;60.54;100186.47;4368576;32;20008;-96
2022/05/06 08:59:09;;;;;;;;;;;;;;;24.94;60.54;100189.16;4367369;32;20332;-95
2022/05/06 09:01:35;;;;;;;;;;;;;;;25.05;60.54;100187.28;4367168;32;19979;-94
2022/05/06 09:04:00;;;;;;;;;;;;;;;25.01;60.55;100188.50;4380268;32;20013;-95
2022/05/06 09:06:29;;;;;;;;;;;;;;;25.07;60.55;100187.13;4367666;32;20002;-90
2022/05/06 09:08:59;;;;;;;;;;;;;;;25.19;60.55;100187.94;4365654;32;19995;-91
2022/05/06 09:33:34;;;;;;;;;;;;;;;26.01;60.60;100194.03;4340483;32;19993;-92
2022/05/06 09:36:00;;;;;;;;;;;;;;;25.86;60.59;100188.25;4353934;32;19971;-93
2022/05/06 09:38:29;;;;;;;;;;;;;;;26.26;60.62;100187.31;4366961;32;20025;-96
2022/05/06 09:40:55;;;;;;;;;;;;;;;26.30;60.61;100176.25;4369626;32;20005;-96
2022/05/06 09:43:28;;;;;;;;;;;;;;;26.48;60.63;100175.56;4369062;32;19998;-96
2022/05/06 09:45:55;;;;;;;;;;;;;;;26.70;60.63;100177.94;4354928;32;20029;-96
2022/05/06 09:48:26;;;;;;;;;;;;;;;26.85;60.64;100181.03;4353195;32;19998;-94
2022/05/06 09:51:15;;;;;;;;;;;;;;;26.74;60.64;100179.37;4353375;32;20013;-94
2022/05/06 09:53:40;;;;;;;;;;;;;;;26.85;60.63;100178.38;4366736;32;20052;-96
2022/05/06 09:56:12;;;;;;;;;;;;;;;26.68;60.64;100171.91;4358581;32;20041;-96
2022/05/06 09:58:40;;;;;;;;;;;;;;;26.71;60.63;100186.81;4461762;27;20087;-96
2022/05/06 10:01:05;;;;;;;;;;;;;;;26.98;60.65;100181.59;4671609;27;19994;-93
2022/05/06 10:09:45;;;;;;;;;;;;;;;27.49;60.67;100170.50;4334653;33;20346;-94
2022/05/06 10:21:08;;;;;;;;;;;;;;;27.85;60.70;100161.75;4317560;33;19975;-96
2022/05/06 10:27:12;;;;;;;;;;;;;;;28.13;60.71;100155.34;4340021;27;19975;-94
2022/05/06 10:32:49;;;;;;;;;;;;;;;28.36;60.72;100153.94;4353835;32;20005;-90
2022/05/06 10:35:15;;;;;;;;;;;;;;;28.73;60.74;100151.09;4364233;32;20062;-94
2022/05/06 10:44:20;;;;;;;;;;;;;;;29.35;60.77;100142.97;4305513;33;20007;-93
2022/05/06 10:46:47;;;;;;;;;;;;;;;29.59;60.78;100129.69;4289909;33;20040;-96
2022/05/06 10:49:31;;;;;;;;;;;;;;;29.74;60.79;100135.25;4293213;33;19999;-96
2022/05/06 10:52:24;;;;;;;;;;;;;;;29.66;60.79;100134.41;4293315;33;19979;-91
2022/05/06 10:54:53;;;;;;;;;;;;;;;29.50;60.78;100132.47;4295261;33;19981;-96
2022/05/06 10:57:20;;;;;;;;;;;;;;;29.67;60.79;100128.03;4301020;32;20015;-96
2022/05/06 11:06:02;;;;;;;;;;;;;;;29.12;60.76;100131.09;4339293;33;20422;-96
2022/05/06 11:08:34;;;;;;;;;;;;;;;29.33;60.77;100118.13;4349395;32;19991;-96
2022/05/06 11:11:02;;;;;;;;;;;;;;;29.39;60.77;100127.38;4364273;32;20038;-96
2022/05/06 11:16:29;;;;;;;;;;;;;;;29.82;60.80;100121.87;4372456;27;19989;-95
2022/05/06 11:19:11;;;;;;;;;;;;;;;29.86;60.79;100127.75;4343312;32;19998;-96
2022/05/06 11:21:36;;;;;;;;;;;;;;;29.68;60.79;100125.19;4351049;32;20377;-95
2022/05/06 11:27:17;;;;;;;;;;;;;;;29.48;60.77;100115.72;4365389;32;20038;-94
2022/05/06 11:30:08;;;;;;;;;;;;;;;;;;;;;
2022/05/06 11:32:33;;;;;;;;;;;;;;;29.67;60.78;100111.94;4355188;32;36443;-96
2022/05/06 11:51:07;;;;;;;;;;;;;;;29.31;60.77;100106.72;4218823;34;20002;-95
2022/05/06 11:53:34;;;;;;;;;;;;;;;29.54;60.78;100098.97;4233842;33;19994;-91
2022/05/06 12:14:47;;;;;;;;;;;;;;;30.12;60.82;100095.44;5175137;27;19950;-96
2022/05/06 12:17:13;;;;;;;;;;;;;;;29.64;60.79;100097.84;4325422;33;19956;-96
2022/05/06 12:19:50;;;;;;;;;;;;;;;;;;;;;
2022/05/06 12:24:58;;;;;;;;;;;;;;;30.16;60.81;100092.25;4442846;27;19988;-96
2022/05/06 12:27:24;;;;;;;;;;;;;;;30.16;60.82;100088.72;4463497;27;19991;-95
2022/05/06 12:29:50;;;;;;;;;;;;;;;30.20;60.82;100088.22;4358180;32;20011;-93
2022/05/06 12:32:18;;;;;;;;;;;;;;;30.17;60.81;100085.03;4398218;27;20011;-96
2022/05/06 12:35:19;;;;;;;;;;;;;;;30.03;60.82;100086.53;4368480;32;19955;-96
2022/05/06 12:37:54;;;;;;;;;;;;;;;30.11;60.80;100083.88;4306840;33;20031;-96
2022/05/06 12:40:32;;;;;;;;;;;;;;;30.24;60.82;100084.19;4346267;32;19997;-94
2022/05/06 12:43:13;;;;;;;;;;;;;;;30.26;60.82;100081.34;4343118;32;19974;-96
2022/05/06 12:45:50;;;;;;;;;;;;;;;30.29;60.83;100074.81;4354056;32;20022;-95
2022/05/06 12:51:00;;;;;;;;;;;;;;;30.24;60.82;100069.94;4354338;32;19993;-95
2022/05/06 12:53:27;;;;;;;;;;;;;;;30.07;60.82;100081.69;4342477;32;20325;-92
2022/05/06 12:55:52;;;;;;;;;;;;;;;30.05;60.82;100065.75;4348955;32;19974;-93
2022/05/06 12:58:17;;;;;;;;;;;;;;;30.01;60.81;100066.19;4344383;32;20002;-95
2022/05/06 13:00:43;;;;;;;;;;;;;;;29.95;60.81;100062.34;4342333;32;20009;-96
2022/05/06 13:03:11;;;;;;;;;;;;;;;29.96;60.81;100069.38;4344144;32;20248;-95
2022/05/06 13:05:36;;;;;;;;;;;;;;;29.97;60.81;100060.31;4381696;27;19959;-96
2022/05/06 13:08:07;;;;;;;;;;;;;;;29.91;60.81;100058.31;4377576;32;20011;-96
2022/05/06 13:10:44;;;;;;;;;;;;;;;29.99;60.81;100057.47;4392127;32;20016;-96
2022/05/06 13:13:10;;;;;;;;;;;;;;;29.92;60.80;100066.19;4391037;32;19954;-96
2022/05/06 13:15:45;;;;;;;;;;;;;;;29.83;60.80;100059.16;4393029;32;19979;-96
2022/05/06 13:18:25;;;;;;;;;;;;;;;29.82;60.80;100062.00;4405955;32;19986;-95
2022/05/06 13:21:12;;;;;;;;;;;;;;;29.99;60.81;100065.53;4414873;27;19961;-96
2022/05/06 13:23:42;;;;;;;;;;;;;;;29.59;60.79;100065.31;4345854;33;19956;-95
2022/05/06 13:26:14;;;;;;;;;;;;;;;29.76;60.80;100059.97;4333609;33;20000;-96
2022/05/06 13:28:45;;;;;;;;;;;;;;;29.71;60.80;100055.09;4332126;33;19992;-96
2022/05/06 13:31:13;;;;;;;;;;;;;;;29.69;60.79;100059.78;4343737;33;19972;-96
2022/05/06 13:33:39;;;;;;;;;;;;;;;29.68;60.79;100055.41;4330354;32;20020;-96
2022/05/06 13:39:00;;;;;;;;;;;;;;;29.57;60.79;100047.66;4340183;33;20031;-96
2022/05/06 13:41:46;;;;;;;;;;;;;;;29.49;60.79;100051.19;4331030;33;19963;-96
2022/05/06 13:44:14;;;;;;;;;;;;;;;29.47;60.79;100042.47;4330847;33;19964;-96
2022/05/06 13:49:18;;;;;;;;;;;;;;;29.46;60.78;100043.47;4454172;27;20011;-96
2022/05/06 13:51:52;;;;;;;;;;;;;;;29.50;60.79;100049.34;4350755;32;19959;-96
2022/05/06 13:54:21;;;;;;;;;;;;;;;29.31;60.79;100043.19;4351495;32;19978;-96
2022/05/06 14:02:28;;;;;;;;;;;;;;;29.42;60.79;100044.75;4412790;28;20002;-96
2022/05/06 14:04:56;;;;;;;;;;;;;;;29.44;60.79;100041.91;4362114;32;19983;-96
2022/05/06 14:07:28;;;;;;;;;;;;;;;29.31;60.77;100034.31;4383472;27;19967;-96
2022/05/06 14:09:54;;;;;;;;;;;;;;;29.22;60.77;100041.50;4447020;27;19991;-96
2022/05/06 14:12:32;;;;;;;;;;;;;;;29.14;60.78;100041.47;4481457;27;19947;-96
2022/05/06 14:14:57;;;;;;;;;;;;;;;29.21;60.77;100037.16;4369719;32;20079;-92
2022/05/06 14:17:22;;;;;;;;;;;;;;;29.16;60.77;100036.81;4350476;32;20007;-92
2022/05/06 14:19:48;;;;;;;;;;;;;;;29.10;60.77;100031.22;4350795;32;19987;-93
2022/05/06 14:22:16;;;;;;;;;;;;;;;28.93;60.76;100033.84;4351062;32;19976;-94
2022/05/06 14:24:45;;;;;;;;;;;;;;;28.92;60.75;100034.00;4355687;32;20015;-96
2022/05/06 14:27:17;;;;;;;;;;;;;;;28.88;60.76;100033.50;4358646;32;19964;-96
2022/05/06 14:30:11;;;;;;;;;;;;;;;28.74;60.75;100031.38;4365356;32;19948;-96
2022/05/06 14:32:50;;;;;;;;;;;;;;;28.48;60.74;100026.00;4374986;32;19994;-96
2022/05/06 14:35:16;;;;;;;;;;;;;;;28.48;60.73;100035.88;4360903;32;19979;-96
2022/05/06 14:37:42;;;;;;;;;;;;;;;28.55;60.75;100029.72;4355293;32;20000;-94
2022/05/06 14:40:21;;;;;;;;;;;;;;;;;;;;;
2022/05/06 14:45:52;;;;;;;;;;;;;;;28.36;60.74;100027.25;4340272;33;19987;-96
2022/05/06 14:48:20;;;;;;;;;;;;;;;28.30;60.74;100020.69;4364367;32;19971;-96
2022/05/06 14:50:45;;;;;;;;;;;;;;;28.35;60.74;100023.75;4354242;32;19990;-96
2022/05/06 14:53:14;;;;;;;;;;;;;;;28.21;60.73;100021.62;4373586;32;19979;-96
2022/05/06 14:55:43;;;;;;;;;;;;;;;28.35;60.73;100022.91;4384158;32;20343;-96
2022/05/06 14:58:12;;;;;;;;;;;;;;;28.43;60.74;100023.81;4387189;32;19999;-96
2022/05/06 15:00:38;;;;;;;;;;;;;;;28.49;60.74;100018.81;4384818;32;19982;-96
2022/05/06 15:03:03;;;;;;;;;;;;;;;28.60;60.75;100013.19;4384536;32;19975;-96
2022/05/06 15:05:32;;;;;;;;;;;;;;;28.55;60.75;100018.19;4373675;32;20341;-96
2022/05/06 15:07:59;;;;;;;;;;;;;;;28.56;60.74;100010.00;4370421;32;20045;-96
2022/05/06 15:10:25;;;;;;;;;;;;;;;28.56;60.74;100011.81;4376886;32;19983;-96
2022/05/06 15:12:51;;;;;;;;;;;;;;;28.59;60.74;100007.00;4369445;32;19979;-96
2022/05/06 15:15:16;;;;;;;;;;;;;;;28.60;60.75;100007.81;4357102;32;20022;-92
2022/05/06 15:27:21;;;;;;;;;;;;;;;28.36;60.74;99995.97;4368392;32;19974;-96
2022/05/06 15:29:49;;;;;;;;;;;;;;;28.37;60.74;100003.00;4350002;32;20091;-95
2022/05/06 15:32:15;;;;;;;;;;;;;;;28.36;60.74;99995.13;4340869;32;19983;-96
2022/05/06 15:34:40;;;;;;;;;;;;;;;28.29;60.73;99992.25;4342248;32;20278;-96
2022/05/06 15:37:05;;;;;;;;;;;;;;;28.17;60.72;99987.28;4341133;32;20038;-96
2022/05/06 15:39:31;;;;;;;;;;;;;;;28.16;60.72;99988.28;4341021;32;19987;-96
2022/05/06 15:41:56;;;;;;;;;;;;;;;28.12;60.73;99993.09;4353290;32;20328;-96
2022/05/06 15:44:21;;;;;;;;;;;;;;;27.97;60.72;99992.81;4341726;32;20010;-94
2022/05/06 15:46:46;;;;;;;;;;;;;;;27.83;60.71;100002.22;4354664;32;20031;-96
2022/05/06 15:49:35;;;;;;;;;;;;;;;27.80;60.71;99999.00;4344793;33;19972;-96
2022/05/06 15:58:57;;;;;;;;;;;;;;;27.57;60.69;100003.09;4213020;33;20005;-95
2022/05/06 16:04:34;;;;;;;;;;;;;;;27.42;60.69;99998.25;4299204;33;19989;-85
2022/05/06 16:07:00;;;;;;;;;;;;;;;27.35;60.69;100004.38;4318500;33;19995;-85
2022/05/06 16:09:26;;;;;;;;;;;;;;;27.43;60.68;99999.94;4331454;33;20265;-85
2022/05/06 16:11:51;;;;;;;;;;;;;;;27.43;60.69;100002.63;4319037;33;20003;-86
2022/05/06 16:15:17;;;;;;;;;;;;;;;27.39;60.68;100003.91;4331146;33;19991;-86
2022/05/06 16:17:02;;;;;;;;;;;;;;;27.30;60.67;99998.66;4332275;33;19980;-86
2022/05/06 16:19:27;;;;;;;;;;;;;;;27.11;60.67;99999.59;4332355;33;19984;-86
2022/05/06 16:21:54;;;;;;;;;;;;;;;27.16;60.67;99998.16;4332249;33;20328;-86
2022/05/06 16:24:19;;;;;;;;;;;;;;;27.10;60.67;100001.41;4332571;33;20437;-86
2022/05/06 16:26:44;;;;;;;;;;;;;;;26.97;60.66;100000.03;4334484;33;24769;-85
2022/05/06 16:29:10;;;;;;;;;;;;;;;26.96;60.66;99998.34;4335110;33;20027;-86
2022/05/06 16:31:35;;;;;;;;;;;;;;;26.97;60.66;99998.22;4333846;33;20384;-86
2022/05/06 16:39:28;;;;;;;;;;;;;;;26.69;60.64;99999.19;4334446;33;20003;-86
2022/05/06 16:41:54;;;;;;;;;;;;;;;26.56;60.64;100000.34;4335282;33;19988;-86
2022/05/06 16:44:19;;;;;;;;;;;;;;;26.53;60.63;100010.50;4335457;33;20004;-86